Time;durP1;ratioP1;P1;durP2;ratioP2;P2;SDS_P1;SDS_P2;PMS_P1;PMS_P2;Temp;Humidity;BMP_temperature;BMP_pressure;BME280_temperature;BME280_humidity;BME280_pressure;Samples;Min_cycle;Max_cycle;Signal;HPM_P1;HPM_P2
2022/01/17 00:02:06;;;;;;;13.90;2.33;;;6.10;99.90;;;;;;5022230;28;20044;-72
2022/01/17 00:04:31;;;;;;;15.55;2.28;;;6.10;99.90;;;;;;5038651;28;20439;-73
2022/01/17 00:06:57;;;;;;;11.88;1.98;;;6.10;99.90;;;;;;5022657;28;20040;-71
2022/01/17 00:09:23;;;;;;;8.95;1.63;;;6.10;99.90;;;;;;5022284;28;20442;-73
2022/01/17 00:11:50;;;;;;;15.05;2.20;;;6.10;99.90;;;;;;5038611;28;20045;-73
2022/01/17 00:14:21;;;;;;;15.95;2.25;;;6.10;99.90;;;;;;5042261;28;20047;-73
2022/01/17 00:17:05;;;;;;;17.20;2.40;;;6.00;99.90;;;;;;5055180;28;20041;-73
2022/01/17 00:19:38;;;;;;;12.10;2.15;;;6.00;99.90;;;;;;5039173;28;20091;-73
2022/01/17 00:22:04;;;;;;;17.75;2.28;;;6.10;99.90;;;;;;5038697;28;20041;-72
2022/01/17 00:24:30;;;;;;;17.90;2.58;;;6.00;99.90;;;;;;5038377;28;20383;-73
2022/01/17 00:26:56;;;;;;;14.65;2.00;;;6.00;99.90;;;;;;5038254;28;20128;-72
2022/01/17 00:29:22;;;;;;;15.90;2.20;;;5.90;99.90;;;;;;5021742;28;20045;-73
2022/01/17 00:31:47;;;;;;;14.25;2.08;;;5.90;99.90;;;;;;5037894;28;20037;-73
2022/01/17 00:34:13;;;;;;;17.23;2.30;;;5.90;99.90;;;;;;5038314;28;20408;-74
2022/01/17 00:36:39;;;;;;;23.95;2.60;;;5.90;99.90;;;;;;5038408;28;20036;-72
2022/01/17 00:39:05;;;;;;;16.35;2.33;;;5.90;99.90;;;;;;5037941;28;20517;-73
2022/01/17 00:41:31;;;;;;;17.60;1.90;;;5.90;99.90;;;;;;5037734;28;20044;-72
2022/01/17 00:43:56;;;;;;;20.33;2.50;;;5.90;99.90;;;;;;5039441;28;20050;-72
2022/01/17 00:46:22;;;;;;;18.02;2.33;;;5.90;99.90;;;;;;5057692;28;20040;-73
2022/01/17 00:48:48;;;;;;;21.50;3.13;;;5.90;99.90;;;;;;5058016;28;20037;-73
2022/01/17 00:51:14;;;;;;;22.83;2.40;;;5.90;99.90;;;;;;5041425;28;20089;-72
2022/01/17 00:53:41;;;;;;;13.30;2.00;;;5.90;99.90;;;;;;5041304;28;20125;-72
2022/01/17 00:56:06;;;;;;;13.50;2.00;;;5.90;99.90;;;;;;5058074;28;20194;-73
2022/01/17 00:58:33;;;;;;;16.83;2.30;;;5.90;99.90;;;;;;5057781;28;20449;-73
2022/01/17 01:00:58;;;;;;;14.18;1.95;;;5.80;99.90;;;;;;5040537;28;20059;-72
2022/01/17 01:03:24;;;;;;;21.00;2.78;;;5.80;99.90;;;;;;5040907;28;20441;-72
2022/01/17 01:05:50;;;;;;;21.40;2.50;;;5.80;99.90;;;;;;5041182;28;20067;-73
2022/01/17 01:08:16;;;;;;;16.88;2.13;;;5.80;99.90;;;;;;5057688;28;20068;-73
2022/01/17 01:10:42;;;;;;;16.63;2.17;;;5.80;99.90;;;;;;5040793;28;20386;-73
2022/01/17 01:13:08;;;;;;;13.40;2.50;;;5.80;99.90;;;;;;5053605;28;20040;-73
2022/01/17 01:18:15;;;;;;;18.65;2.65;;;5.80;99.90;;;;;;5054531;28;20051;-72
2022/01/17 01:28:42;;;;;;;17.15;2.50;;;5.80;99.90;;;;;;5053935;28;20052;-73
2022/01/17 01:31:14;;;;;;;17.30;2.47;;;5.80;99.90;;;;;;5021044;28;20037;-74
2022/01/17 01:33:47;;;;;;;12.70;1.90;;;5.80;99.90;;;;;;5020580;28;20041;-73
2022/01/17 01:36:22;;;;;;;14.98;2.03;;;5.80;99.90;;;;;;5040846;28;20029;-73
2022/01/17 01:38:48;;;;;;;11.55;1.83;;;5.80;99.90;;;;;;5056595;28;20043;-73
2022/01/17 01:41:14;;;;;;;20.38;2.40;;;5.80;99.90;;;;;;5040691;28;20036;-72
2022/01/17 01:43:40;;;;;;;18.23;2.47;;;5.80;99.90;;;;;;5057341;28;20051;-73
2022/01/17 01:46:06;;;;;;;13.43;2.50;;;5.80;99.90;;;;;;5056824;28;20048;-73
2022/01/17 01:48:34;;;;;;;21.27;3.08;;;5.80;99.90;;;;;;5056616;28;20052;-73
2022/01/17 01:51:00;;;;;;;16.55;2.15;;;5.70;99.90;;;;;;5055560;28;20044;-73
2022/01/17 01:53:26;;;;;;;22.05;2.30;;;5.60;99.90;;;;;;5056997;28;20044;-72
2022/01/17 01:55:57;;;;;;;16.73;2.40;;;5.60;99.90;;;;;;5040622;28;20131;-72
2022/01/17 01:58:24;;;;;;;17.02;2.47;;;5.60;99.90;;;;;;5056560;28;20475;-74
2022/01/17 02:00:51;;;;;;;14.77;2.67;;;5.50;99.90;;;;;;5039799;28;20114;-72
2022/01/17 02:03:18;;;;;;;22.55;2.72;;;5.50;99.90;;;;;;5050903;28;20052;-72
2022/01/17 02:05:44;;;;;;;17.42;2.05;;;5.50;99.90;;;;;;5018649;28;20131;-74
2022/01/17 02:08:14;;;;;;;11.63;2.40;;;5.50;99.90;;;;;;5020689;28;20135;-73
2022/01/17 02:10:40;;;;;;;17.55;2.63;;;5.50;99.90;;;;;;5036598;28;20091;-73
2022/01/17 02:13:06;;;;;;;17.35;2.65;;;5.50;99.90;;;;;;5036314;28;20487;-73
2022/01/17 02:15:32;;;;;;;18.95;2.85;;;5.50;99.90;;;;;;5020146;28;20067;-73
2022/01/17 02:17:58;;;;;;;17.88;2.30;;;5.50;99.90;;;;;;5019675;28;20509;-73
2022/01/17 02:23:08;;;;;;;16.67;2.60;;;5.50;99.90;;;;;;5036711;28;20148;-72
2022/01/17 02:25:34;;;;;;;20.95;2.53;;;5.50;99.90;;;;;;5036225;28;20041;-72
2022/01/17 02:28:00;;;;;;;17.38;2.30;;;5.50;99.90;;;;;;5036053;28;20124;-72
2022/01/17 02:30:31;;;;;;;13.68;2.70;;;5.50;99.90;;;;;;5035990;28;20036;-72
2022/01/17 02:33:00;;;;;;;16.33;2.80;;;5.50;99.90;;;;;;5035404;28;20472;-73
2022/01/17 02:35:26;;;;;;;16.50;2.20;;;5.50;99.90;;;;;;5035512;28;20225;-73
2022/01/17 02:37:52;;;;;;;17.48;2.13;;;5.40;99.90;;;;;;5036024;28;20356;-73
2022/01/17 02:40:20;;;;;;;20.20;2.67;;;5.40;99.90;;;;;;5036192;28;20525;-73
2022/01/17 02:42:51;;;;;;;18.88;3.08;;;5.40;99.90;;;;;;5019627;28;20052;-73
2022/01/17 02:48:09;;;;;;;17.83;2.65;;;5.30;99.90;;;;;;5008098;28;20044;-72
2022/01/17 02:50:35;;;;;;;18.95;2.85;;;5.30;99.90;;;;;;5035597;28;20506;-72
2022/01/17 02:53:04;;;;;;;15.15;2.17;;;5.30;99.90;;;;;;5035976;28;20045;-72
2022/01/17 02:55:30;;;;;;;21.02;3.08;;;5.30;99.90;;;;;;5035517;28;20037;-72
2022/01/17 02:57:56;;;;;;;14.63;2.50;;;5.30;99.90;;;;;;5019081;28;20045;-73
2022/01/17 03:00:23;;;;;;;18.83;3.20;;;5.20;99.90;;;;;;5035711;28;20043;-73
2022/01/17 03:02:49;;;;;;;18.65;2.83;;;5.20;99.90;;;;;;5036658;28;20040;-72
2022/01/17 03:05:16;;;;;;;19.52;2.03;;;5.20;99.90;;;;;;5055642;28;20049;-72
2022/01/17 03:07:43;;;;;;;16.60;2.53;;;5.20;99.90;;;;;;5039147;28;20094;-73
2022/01/17 03:10:18;;;;;;;24.55;2.90;;;5.20;99.90;;;;;;5055360;28;20075;-72
2022/01/17 03:12:44;;;;;;;18.42;2.80;;;5.10;99.90;;;;;;5055495;28;20113;-72
2022/01/17 03:15:10;;;;;;;18.83;2.42;;;5.10;99.90;;;;;;5038780;28;20463;-72
2022/01/17 03:17:35;;;;;;;25.35;2.88;;;5.00;99.90;;;;;;5038545;28;20127;-74
2022/01/17 03:20:01;;;;;;;24.20;2.35;;;5.00;99.90;;;;;;5038743;28;20457;-72
2022/01/17 03:22:27;;;;;;;22.48;1.98;;;5.00;99.90;;;;;;5055191;28;20032;-71
2022/01/17 03:24:52;;;;;;;15.07;2.83;;;5.00;99.90;;;;;;5038517;28;20047;-72
2022/01/17 03:27:18;;;;;;;14.02;2.35;;;4.90;99.90;;;;;;5055364;28;20033;-73
2022/01/17 03:29:44;;;;;;;21.35;2.45;;;4.90;99.90;;;;;;5038591;28;20051;-72
2022/01/17 03:32:09;;;;;;;19.20;2.70;;;4.90;99.90;;;;;;5055535;28;20387;-72
2022/01/17 03:34:36;;;;;;;16.60;2.13;;;4.90;99.90;;;;;;5055681;28;20037;-72
2022/01/17 03:37:02;;;;;;;18.45;2.72;;;4.80;99.90;;;;;;5055262;28;20048;-74
2022/01/17 03:39:28;;;;;;;17.92;2.15;;;4.80;99.90;;;;;;5054938;28;20048;-72
2022/01/17 03:41:54;;;;;;;19.95;2.35;;;4.90;99.90;;;;;;5038776;28;20037;-73
2022/01/17 03:44:19;;;;;;;22.40;2.60;;;4.90;99.90;;;;;;5055302;28;20090;-73
2022/01/17 03:46:45;;;;;;;23.25;2.55;;;4.90;99.90;;;;;;5055619;28;20049;-73
2022/01/17 03:49:10;;;;;;;14.02;1.98;;;4.90;99.90;;;;;;5055138;28;20052;-73
2022/01/17 03:51:36;;;;;;;17.75;2.58;;;4.90;99.90;;;;;;5055272;28;20048;-74
2022/01/17 03:54:02;;;;;;;16.15;2.97;;;4.80;99.90;;;;;;5054454;28;20394;-74
2022/01/17 03:56:27;;;;;;;14.48;1.90;;;4.80;99.90;;;;;;5051967;28;20490;-72
2022/01/17 03:58:53;;;;;;;13.90;2.67;;;4.90;99.90;;;;;;5018876;28;20379;-72
2022/01/17 04:01:19;;;;;;;18.98;2.40;;;4.90;99.90;;;;;;5035115;28;20076;-71
2022/01/17 04:03:46;;;;;;;22.13;2.65;;;4.90;99.90;;;;;;5018914;28;20142;-73
2022/01/17 04:06:15;;;;;;;17.95;2.30;;;4.90;99.90;;;;;;5018670;28;20045;-73
2022/01/17 04:08:41;;;;;;;20.33;2.40;;;4.90;99.90;;;;;;5018609;28;20037;-73
2022/01/17 04:11:08;;;;;;;16.80;2.10;;;5.00;99.90;;;;;;5035127;28;20490;-73
2022/01/17 04:13:34;;;;;;;26.35;2.95;;;5.00;99.90;;;;;;5036876;28;20045;-72
2022/01/17 04:16:00;;;;;;;22.33;2.63;;;4.90;99.90;;;;;;5038641;28;20111;-74
2022/01/17 04:18:26;;;;;;;16.27;2.53;;;5.00;99.90;;;;;;5022139;28;20107;-72
2022/01/17 04:20:52;;;;;;;16.27;2.92;;;4.90;99.90;;;;;;5038321;28;20048;-73
2022/01/17 04:23:18;;;;;;;24.20;2.63;;;4.90;99.90;;;;;;5046447;28;20045;-73
2022/01/17 04:25:45;;;;;;;17.90;2.63;;;5.00;99.90;;;;;;5039088;28;20055;-74
2022/01/17 04:28:13;;;;;;;17.02;2.03;;;5.00;99.90;;;;;;5038814;28;20033;-72
2022/01/17 04:30:39;;;;;;;16.45;2.10;;;5.00;99.90;;;;;;5038511;28;20032;-73
2022/01/17 04:33:06;;;;;;;16.42;2.35;;;4.90;99.90;;;;;;5038319;28;20403;-73
2022/01/17 04:35:33;;;;;;;19.80;2.42;;;4.90;99.90;;;;;;5038244;28;20037;-73
2022/01/17 04:38:02;;;;;;;16.67;2.95;;;4.90;99.90;;;;;;5037857;28;20495;-73
2022/01/17 04:40:34;;;;;;;17.85;2.35;;;4.90;99.90;;;;;;5021738;28;20048;-72
2022/01/17 04:43:03;;;;;;;14.30;2.25;;;4.80;99.90;;;;;;5021793;28;20132;-74
2022/01/17 04:45:28;;;;;;;12.30;1.70;;;4.80;99.90;;;;;;5038210;28;20048;-73
2022/01/17 04:47:54;;;;;;;21.65;2.92;;;4.80;99.90;;;;;;5021626;28;20047;-73
2022/01/17 04:50:25;;;;;;;23.20;2.65;;;4.80;99.90;;;;;;5021061;28;20045;-74
2022/01/17 04:52:54;;;;;;;14.35;2.05;;;4.80;99.90;;;;;;5033554;28;20040;-73
2022/01/17 04:55:20;;;;;;;17.83;2.90;;;4.80;99.90;;;;;;5041819;28;20036;-73
2022/01/17 04:57:46;;;;;;;16.38;2.60;;;4.80;99.90;;;;;;5057593;28;20032;-73
2022/01/17 05:00:17;;;;;;;13.55;2.47;;;4.80;99.90;;;;;;5041226;28;20036;-73
2022/01/17 05:02:43;;;;;;;20.35;2.72;;;4.80;99.90;;;;;;5040399;28;20530;-74
2022/01/17 05:05:10;;;;;;;15.63;1.95;;;4.80;99.90;;;;;;5057386;28;20088;-74
2022/01/17 05:07:37;;;;;;;15.18;2.30;;;4.80;99.90;;;;;;5057785;28;20086;-73
2022/01/17 05:10:09;;;;;;;14.75;2.05;;;4.80;99.90;;;;;;5040790;28;20367;-73
2022/01/17 05:12:35;;;;;;;24.48;3.25;;;4.90;99.90;;;;;;5057365;28;20422;-73
2022/01/17 05:15:01;;;;;;;15.02;2.22;;;4.90;99.90;;;;;;5056752;28;20066;-72
2022/01/17 05:19:58;;;;;;;16.50;2.10;;;5.00;99.90;;;;;;5057150;28;20052;-73
2022/01/17 05:22:26;;;;;;;19.00;3.10;;;5.00;99.90;;;;;;5057416;28;20044;-72
2022/01/17 05:24:52;;;;;;;13.57;2.28;;;5.00;99.90;;;;;;5057130;28;20359;-73
2022/01/17 05:27:18;;;;;;;15.73;2.60;;;5.10;99.90;;;;;;5057221;28;20032;-74
2022/01/17 05:29:46;;;;;;;16.25;1.98;;;5.10;99.90;;;;;;5056942;28;20078;-72
2022/01/17 05:32:12;;;;;;;21.45;2.67;;;5.20;99.90;;;;;;5040183;28;20044;-73
2022/01/17 05:34:40;;;;;;;16.85;3.42;;;5.20;99.90;;;;;;5040701;28;20094;-73
2022/01/17 05:37:11;;;;;;;22.95;3.10;;;5.30;99.90;;;;;;5057113;28;20475;-73
2022/01/17 05:39:37;;;;;;;19.85;3.70;;;5.30;99.90;;;;;;5057239;28;20040;-74
2022/01/17 05:42:04;;;;;;;16.48;3.58;;;5.30;99.90;;;;;;5056617;28;20032;-72
2022/01/17 05:44:30;;;;;;;18.48;2.78;;;5.40;99.90;;;;;;5053079;28;20068;-72
2022/01/17 05:46:56;;;;;;;15.55;3.10;;;5.40;99.90;;;;;;5020198;28;20425;-73
2022/01/17 05:49:22;;;;;;;21.13;2.83;;;5.40;99.90;;;;;;5037054;28;20471;-74
2022/01/17 05:51:47;;;;;;;21.13;3.28;;;5.50;99.90;;;;;;5053514;28;20135;-73
2022/01/17 05:54:13;;;;;;;18.55;2.60;;;5.50;99.90;;;;;;5036759;28;20095;-73
2022/01/17 05:56:38;;;;;;;19.95;4.07;;;5.50;99.90;;;;;;5036771;28;20058;-73
2022/01/17 05:59:04;;;;;;;15.30;2.45;;;5.60;99.90;;;;;;5020132;28;20450;-72
2022/01/17 06:01:30;;;;;;;20.80;3.05;;;5.70;99.90;;;;;;5052606;28;20099;-73
2022/01/17 06:03:55;;;;;;;20.33;4.38;;;5.70;99.90;;;;;;5053000;28;20551;-72
2022/01/17 06:06:21;;;;;;;26.40;9.65;;;5.70;99.90;;;;;;5053325;28;20044;-73
2022/01/17 06:08:47;;;;;;;21.70;6.40;;;5.70;99.90;;;;;;5020210;28;20056;-74
2022/01/17 06:11:12;;;;;;;21.65;4.85;;;5.80;99.90;;;;;;5036673;28;20041;-75
2022/01/17 06:13:38;;;;;;;19.90;3.95;;;5.80;99.90;;;;;;5054728;28;20041;-75
2022/01/17 06:16:04;;;;;;;19.55;4.28;;;5.80;99.90;;;;;;5055444;28;20036;-73
2022/01/17 06:18:30;;;;;;;19.52;3.80;;;5.80;99.90;;;;;;5056518;28;20040;-72
2022/01/17 06:20:56;;;;;;;22.75;3.55;;;5.80;99.90;;;;;;5039515;28;20127;-71
2022/01/17 06:23:24;;;;;;;19.45;4.03;;;5.90;99.90;;;;;;5038936;28;20119;-72
2022/01/17 06:25:49;;;;;;;21.35;3.78;;;5.90;99.90;;;;;;5056358;28;20040;-72
2022/01/17 06:28:15;;;;;;;20.15;4.00;;;6.00;99.90;;;;;;5055747;28;20387;-72
2022/01/17 06:30:41;;;;;;;13.80;3.60;;;5.90;99.90;;;;;;5055882;28;20037;-72
2022/01/17 06:33:06;;;;;;;16.92;4.22;;;6.00;99.90;;;;;;5055861;28;20382;-71
2022/01/17 06:35:32;;;;;;;25.35;4.25;;;6.00;99.90;;;;;;5055531;28;20425;-71
2022/01/17 06:37:58;;;;;;;23.70;4.55;;;6.00;99.90;;;;;;5039453;28;20054;-72
2022/01/17 06:40:24;;;;;;;22.05;4.75;;;6.00;99.90;;;;;;5056062;28;20045;-72
2022/01/17 06:42:50;;;;;;;18.95;4.95;;;6.00;99.90;;;;;;5038930;28;20036;-73
2022/01/17 06:45:18;;;;;;;21.95;6.30;;;6.10;99.90;;;;;;5055522;28;20387;-74
2022/01/17 06:47:44;;;;;;;17.70;5.22;;;6.10;99.90;;;;;;5056249;28;20041;-73
2022/01/17 06:50:11;;;;;;;24.85;5.30;;;6.10;99.90;;;;;;5039549;28;20442;-72
2022/01/17 06:52:38;;;;;;;21.70;5.20;;;6.10;99.90;;;;;;5055964;28;20036;-72
2022/01/17 06:55:04;;;;;;;32.22;6.07;;;6.20;99.90;;;;;;5055785;28;20081;-71
2022/01/17 06:57:30;;;;;;;24.95;6.10;;;6.20;99.90;;;;;;5055483;28;20578;-73
2022/01/17 06:59:56;;;;;;;22.70;6.55;;;6.20;99.90;;;;;;5038582;28;20116;-73
2022/01/17 07:02:21;;;;;;;30.25;10.05;;;6.20;99.90;;;;;;5051748;28;20499;-73
2022/01/17 07:04:47;;;;;;;18.17;6.88;;;6.20;99.90;;;;;;5045652;28;20055;-73
2022/01/17 07:07:13;;;;;;;23.08;7.50;;;6.30;99.90;;;;;;5038065;28;20059;-73
2022/01/17 07:09:38;;;;;;;20.38;6.80;;;6.30;99.90;;;;;;5055663;28;20036;-72
2022/01/17 07:12:05;;;;;;;25.02;7.47;;;6.30;99.90;;;;;;5039011;28;20487;-73
2022/01/17 07:14:31;;;;;;;28.08;7.65;;;6.20;99.90;;;;;;5055301;28;20379;-73
2022/01/17 07:16:57;;;;;;;22.65;6.65;;;6.30;99.90;;;;;;5038969;28;20045;-72
2022/01/17 07:19:24;;;;;;;23.25;7.25;;;6.30;99.90;;;;;;5038956;28;20047;-73
2022/01/17 07:21:51;;;;;;;18.58;6.82;;;6.30;99.90;;;;;;5038866;28;20072;-72
2022/01/17 07:24:17;;;;;;;25.15;7.10;;;6.20;99.90;;;;;;5038974;28;20048;-73
2022/01/17 07:26:43;;;;;;;23.00;6.70;;;6.20;99.90;;;;;;5055275;28;20082;-72
2022/01/17 07:29:09;;;;;;;24.05;7.60;;;6.20;99.90;;;;;;5055049;28;20048;-72
2022/01/17 07:31:38;;;;;;;32.85;8.00;;;6.20;99.90;;;;;;5055483;28;20118;-73
2022/01/17 07:34:05;;;;;;;33.33;8.10;;;6.20;99.90;;;;;;5039219;28;20048;-71
2022/01/17 07:36:31;;;;;;;27.90;7.15;;;6.20;99.90;;;;;;5054918;28;20462;-72
2022/01/17 07:38:57;;;;;;;26.85;7.45;;;6.20;99.90;;;;;;5055406;28;20135;-72
2022/01/17 07:41:23;;;;;;;27.63;7.63;;;6.20;99.90;;;;;;5054372;28;20085;-71
2022/01/17 07:43:50;;;;;;;26.10;7.65;;;6.20;99.90;;;;;;5055321;28;20044;-73
2022/01/17 07:46:24;;;;;;;29.65;7.40;;;6.20;99.90;;;;;;5055161;28;20056;-73
2022/01/17 07:51:25;;;;;;;32.80;7.57;;;6.20;99.90;;;;;;5058874;28;20518;-71
2022/01/17 07:53:50;;;;;;;26.25;7.43;;;6.20;99.90;;;;;;5058756;28;20040;-72
2022/01/17 07:56:16;;;;;;;28.45;7.00;;;6.20;99.90;;;;;;5041973;28;20051;-72
2022/01/17 07:58:42;;;;;;;37.60;7.40;;;6.30;99.90;;;;;;5059133;28;20051;-73
2022/01/17 08:01:08;;;;;;;37.53;7.78;;;6.20;99.90;;;;;;5055238;28;20052;-74
2022/01/17 08:03:34;;;;;;;31.20;7.32;;;6.30;99.90;;;;;;5038776;28;20379;-74
2022/01/17 08:06:00;;;;;;;30.08;7.70;;;6.30;99.90;;;;;;5050611;28;20483;-73
2022/01/17 08:08:26;;;;;;;31.40;8.05;;;6.30;99.90;;;;;;5022279;28;20090;-72
2022/01/17 08:10:52;;;;;;;26.55;7.40;;;6.30;99.90;;;;;;5022076;28;20041;-73
2022/01/17 08:13:21;;;;;;;26.98;6.70;;;6.30;99.90;;;;;;5028849;28;20067;-74
2022/01/17 08:15:47;;;;;;;27.85;6.60;;;6.40;99.90;;;;;;5058439;28;20044;-74
2022/01/17 08:18:14;;;;;;;31.60;7.63;;;6.30;99.90;;;;;;5041850;28;20433;-73
2022/01/17 08:20:41;;;;;;;34.13;7.25;;;6.30;99.90;;;;;;5058315;28;20055;-75
2022/01/17 08:23:07;;;;;;;31.58;6.50;;;6.30;99.90;;;;;;5058262;28;20052;-73
2022/01/17 08:25:33;;;;;;;31.15;6.25;;;6.40;99.90;;;;;;5059171;28;20125;-73
2022/01/17 08:27:59;;;;;;;46.35;14.73;;;6.40;99.90;;;;;;5058994;28;20044;-74
2022/01/17 08:30:25;;;;;;;34.13;7.68;;;6.40;99.90;;;;;;5041171;28;20390;-73
2022/01/17 08:32:51;;;;;;;27.17;7.90;;;6.40;99.90;;;;;;5041336;28;20074;-73
2022/01/17 08:35:20;;;;;;;30.70;6.18;;;6.40;99.90;;;;;;5057803;28;20115;-72
2022/01/17 08:37:46;;;;;;;26.48;5.72;;;6.50;99.90;;;;;;5057943;28;20170;-74
2022/01/17 08:40:12;;;;;;;23.10;5.50;;;6.50;99.90;;;;;;5058483;28;20074;-72
2022/01/17 08:42:38;;;;;;;28.25;6.10;;;6.50;99.90;;;;;;5057844;28;20040;-73
2022/01/17 08:45:07;;;;;;;40.13;5.55;;;6.50;99.90;;;;;;5057846;28;20109;-73
2022/01/17 08:47:33;;;;;;;30.08;5.97;;;6.50;99.90;;;;;;5041424;28;20127;-72
2022/01/17 08:49:59;;;;;;;28.08;4.97;;;6.50;99.90;;;;;;5041367;28;20135;-72
2022/01/17 08:52:25;;;;;;;31.67;4.95;;;6.50;99.90;;;;;;5040617;28;20040;-73
2022/01/17 08:54:50;;;;;;;29.20;5.40;;;6.60;99.90;;;;;;5057323;28;20036;-74
2022/01/17 08:57:17;;;;;;;36.72;5.57;;;6.60;99.90;;;;;;5058060;28;20069;-73
2022/01/17 08:59:45;;;;;;;26.63;5.57;;;6.60;99.90;;;;;;5057524;28;20051;-73
2022/01/17 09:02:11;;;;;;;37.42;5.10;;;6.60;99.90;;;;;;5040717;28;20127;-76
2022/01/17 09:04:40;;;;;;;36.20;5.80;;;6.70;99.90;;;;;;5057358;28;20080;-73
2022/01/17 09:07:11;;;;;;;36.45;5.07;;;6.70;99.90;;;;;;5057285;28;20048;-72
2022/01/17 09:09:38;;;;;;;32.80;4.85;;;6.70;99.90;;;;;;5057780;28;20040;-73
2022/01/17 09:12:05;;;;;;;34.25;4.55;;;6.70;99.90;;;;;;5057748;28;20045;-73
2022/01/17 09:14:31;;;;;;;29.73;5.05;;;6.80;99.90;;;;;;5040775;28;20174;-73
2022/01/17 09:16:56;;;;;;;33.40;4.13;;;6.70;99.90;;;;;;5056959;28;20123;-72
2022/01/17 09:19:22;;;;;;;37.55;5.32;;;6.80;99.90;;;;;;5040608;28;20060;-74
2022/01/17 09:21:48;;;;;;;35.03;5.00;;;6.70;99.90;;;;;;5056912;28;20048;-74
2022/01/17 09:24:13;;;;;;;38.03;5.55;;;6.80;99.90;;;;;;5057704;28;20059;-73
2022/01/17 09:26:39;;;;;;;41.67;6.95;;;6.80;99.90;;;;;;5057269;28;20102;-76
2022/01/17 09:29:05;;;;;;;33.05;6.88;;;6.80;99.90;;;;;;5057298;28;20127;-73
2022/01/17 09:31:31;;;;;;;37.72;6.20;;;6.90;99.90;;;;;;5040628;28;20051;-75
2022/01/17 09:33:57;;;;;;;38.75;5.15;;;6.90;99.90;;;;;;5040424;28;20049;-74
2022/01/17 09:36:25;;;;;;;37.42;5.45;;;7.00;99.90;;;;;;5056855;28;20130;-74
2022/01/17 09:38:52;;;;;;;33.97;5.57;;;6.90;99.90;;;;;;5057642;28;20044;-74
2022/01/17 09:41:18;;;;;;;39.20;5.53;;;7.00;99.90;;;;;;5056744;28;20474;-74
2022/01/17 09:43:44;;;;;;;30.15;4.00;;;7.00;99.90;;;;;;5056664;28;20036;-74
2022/01/17 09:46:10;;;;;;;31.15;4.57;;;7.10;99.90;;;;;;5039803;28;20512;-74
2022/01/17 09:48:38;;;;;;;35.33;4.80;;;7.10;99.90;;;;;;5056756;28;20045;-74
2022/01/17 09:53:59;;;;;;;41.58;5.63;;;7.20;99.90;;;;;;5056947;28;20051;-74
2022/01/17 09:56:28;;;;;;;48.05;9.73;;;7.30;99.90;;;;;;5056783;28;20041;-73
2022/01/17 09:58:54;;;;;;;44.63;10.75;;;7.40;99.90;;;;;;5056408;28;20048;-73
2022/01/17 10:01:20;;;;;;;40.30;7.60;;;7.40;99.90;;;;;;5056103;28;20043;-77
2022/01/17 10:03:46;;;;;;;46.15;7.28;;;7.50;99.90;;;;;;5056256;28;20049;-75
2022/01/17 10:06:12;;;;;;;37.65;5.63;;;7.50;99.90;;;;;;5056949;28;20049;-74
2022/01/17 10:08:37;;;;;;;42.08;10.60;;;7.60;99.90;;;;;;5056503;28;20098;-74
2022/01/17 10:11:12;;;;;;;43.47;7.15;;;7.60;99.90;;;;;;5055603;28;20047;-77
2022/01/17 10:13:45;;;;;;;38.38;6.25;;;7.60;99.90;;;;;;5056118;28;20514;-77
2022/01/17 10:16:21;;;;;;;39.42;6.63;;;7.70;99.90;;;;;;5039660;28;20040;-74
2022/01/17 10:18:54;;;;;;;33.72;5.13;;;7.70;99.90;;;;;;5039649;28;20045;-74
2022/01/17 10:21:31;;;;;;;36.22;5.55;;;7.80;99.90;;;;;;5056306;28;20086;-73
2022/01/17 10:35:07;;;;;;;39.13;5.07;;;8.10;99.90;;;;;;5055255;28;20102;-73
2022/01/17 10:37:32;;;;;;;29.80;5.00;;;8.10;99.90;;;;;;5056019;28;20477;-73
2022/01/17 10:40:05;;;;;;;27.90;4.53;;;8.20;99.90;;;;;;5056175;28;20076;-73
2022/01/17 10:42:35;;;;;;;38.30;4.72;;;8.20;99.90;;;;;;5038144;28;20498;-75
2022/01/17 10:45:11;;;;;;;30.40;4.45;;;8.30;99.90;;;;;;5054970;28;20036;-73
2022/01/17 10:47:39;;;;;;;41.95;5.50;;;8.30;99.90;;;;;;5055850;28;20479;-73
2022/01/17 10:50:14;;;;;;;34.20;4.07;;;8.30;99.90;;;;;;5055964;28;20039;-74
2022/01/17 10:52:47;;;;;;;32.03;5.68;;;8.40;99.90;;;;;;5039061;28;20443;-73
2022/01/17 10:55:16;;;;;;;40.42;6.95;;;8.50;99.90;;;;;;5055381;28;20044;-74
2022/01/17 10:57:46;;;;;;;46.25;7.35;;;8.50;99.90;;;;;;5055274;28;20080;-74
2022/01/17 11:00:34;;;;;;;37.33;5.82;;;8.50;99.90;;;;;;5038931;28;20040;-75
2022/01/17 11:03:03;;;;;;;45.53;7.05;;;8.60;99.90;;;;;;5055096;28;20036;-73
2022/01/17 11:05:31;;;;;;;43.07;5.90;;;8.80;99.90;;;;;;5054891;28;20062;-73
2022/01/17 11:08:00;;;;;;;36.30;6.28;;;8.80;99.90;;;;;;5038397;28;20127;-74
2022/01/17 11:10:36;;;;;;;42.20;6.30;;;8.90;99.90;;;;;;5039308;28;20048;-74
2022/01/17 11:13:04;;;;;;;37.70;6.25;;;9.00;99.90;;;;;;5055364;28;20047;-73
2022/01/17 11:15:33;;;;;;;39.75;5.78;;;9.00;99.90;;;;;;5055716;28;20041;-73
2022/01/17 11:18:10;;;;;;;32.47;4.72;;;9.00;99.90;;;;;;5055315;28;20419;-72
2022/01/17 11:20:35;;;;;;;34.45;5.25;;;9.00;99.90;;;;;;5037599;28;20083;-72
2022/01/17 11:23:03;;;;;;;41.65;5.30;;;9.00;99.90;;;;;;5058044;28;20058;-73
2022/01/17 11:25:34;;;;;;;49.55;5.45;;;9.00;99.90;;;;;;5060069;28;20082;-72
2022/01/17 11:28:02;;;;;;;42.92;6.50;;;8.90;99.90;;;;;;5059792;28;20097;-73
2022/01/17 11:30:29;;;;;;;39.90;5.70;;;8.90;99.90;;;;;;5058961;28;20081;-73
2022/01/17 11:32:56;;;;;;;39.95;6.43;;;9.00;99.90;;;;;;5058927;28;20119;-75
2022/01/17 11:35:23;;;;;;;38.67;7.25;;;9.00;99.90;;;;;;5058568;28;20051;-75
2022/01/17 11:37:56;;;;;;;41.65;6.97;;;9.00;99.90;;;;;;5059554;28;20053;-74
2022/01/17 11:40:36;;;;;;;44.30;6.82;;;9.00;99.90;;;;;;5059279;28;20055;-72
2022/01/17 11:43:24;;;;;;;44.67;7.03;;;9.00;99.90;;;;;;5042354;28;20037;-73
2022/01/17 11:45:54;;;;;;;44.25;6.88;;;9.10;99.90;;;;;;5058997;28;20485;-74
2022/01/17 11:48:31;;;;;;;45.78;7.65;;;9.30;99.90;;;;;;5059699;28;20048;-72
2022/01/17 11:51:12;;;;;;;48.08;6.80;;;9.50;99.90;;;;;;5058745;28;20042;-73
2022/01/17 11:53:46;;;;;;;40.65;6.78;;;9.50;99.90;;;;;;5059113;28;20062;-72
2022/01/17 11:56:43;;;;;;;36.22;5.43;;;9.50;99.90;;;;;;5058328;28;20049;-73
2022/01/17 11:59:36;;;;;;;45.45;5.47;;;9.50;99.90;;;;;;5058939;28;20414;-73
2022/01/17 12:02:20;;;;;;;49.97;7.05;;;9.50;99.90;;;;;;5058492;28;20098;-74
2022/01/17 12:05:07;;;;;;;49.92;7.35;;;9.40;99.90;;;;;;5055299;28;20049;-72
2022/01/17 12:07:40;;;;;;;38.58;5.45;;;9.50;99.90;;;;;;5039120;28;20044;-72
2022/01/17 12:10:14;;;;;;;47.72;7.25;;;9.50;99.90;;;;;;5038942;28;20041;-73
2022/01/17 12:12:40;;;;;;;39.80;5.43;;;9.70;99.90;;;;;;5038138;28;20387;-73
2022/01/17 12:15:16;;;;;;;43.47;6.78;;;10.00;99.90;;;;;;5037425;28;20044;-73
2022/01/17 12:17:43;;;;;;;38.40;5.50;;;10.10;99.90;;;;;;5037694;28;20498;-73
2022/01/17 12:20:14;;;;;;;44.03;6.85;;;10.30;99.90;;;;;;5047155;28;20063;-73
2022/01/17 12:22:40;;;;;;;43.20;6.57;;;10.30;99.90;;;;;;5040762;28;20386;-73
2022/01/17 12:25:24;;;;;;;44.33;6.75;;;10.30;99.90;;;;;;5041058;28;20501;-74
2022/01/17 12:28:12;;;;;;;43.20;7.13;;;10.10;99.90;;;;;;5056665;28;20486;-73
2022/01/17 12:30:51;;;;;;;43.70;7.43;;;10.00;99.90;;;;;;5041622;28;20403;-72
2022/01/17 12:33:37;;;;;;;35.13;6.20;;;9.90;99.90;;;;;;5054694;28;20045;-73
2022/01/17 12:36:24;;;;;;;59.38;15.57;;;9.80;99.90;;;;;;5056768;28;20435;-72
2022/01/17 12:38:51;;;;;;;53.80;14.25;;;9.80;99.90;;;;;;5056864;28;20055;-73
2022/01/17 12:41:37;;;;;;;31.83;7.30;;;9.70;99.90;;;;;;5057091;28;20043;-75
2022/01/17 12:44:29;;;;;;;34.40;7.07;;;9.70;99.90;;;;;;5040663;28;20040;-73
2022/01/17 12:46:58;;;;;;;33.63;6.40;;;9.70;99.90;;;;;;5040637;28;20064;-73
2022/01/17 12:49:24;;;;;;;32.63;6.22;;;9.70;99.90;;;;;;5053913;28;20479;-73
2022/01/17 12:51:52;;;;;;;38.90;7.00;;;9.70;99.90;;;;;;5056481;28;20048;-73
2022/01/17 12:54:23;;;;;;;36.25;6.43;;;9.70;99.90;;;;;;5057219;28;20139;-73
2022/01/17 12:56:52;;;;;;;39.72;6.90;;;9.70;99.90;;;;;;5057062;28;20569;-71
2022/01/17 12:59:18;;;;;;;41.95;6.88;;;9.70;99.90;;;;;;5057002;28;20056;-73
2022/01/17 13:01:59;;;;;;;41.90;7.88;;;9.70;99.90;;;;;;5056697;28;20495;-73
2022/01/17 13:04:25;;;;;;;44.58;7.30;;;9.70;99.90;;;;;;5052684;28;20053;-73
2022/01/17 13:06:52;;;;;;;39.30;7.18;;;9.70;99.90;;;;;;5037136;28;20049;-72
2022/01/17 13:09:21;;;;;;;39.30;5.95;;;9.60;99.90;;;;;;5039723;28;20033;-73
2022/01/17 13:11:48;;;;;;;38.97;7.03;;;9.60;99.90;;;;;;5056600;28;20087;-74
2022/01/17 13:14:20;;;;;;;37.70;6.53;;;9.60;99.90;;;;;;5056821;28;20048;-74
2022/01/17 13:16:48;;;;;;;43.75;8.07;;;9.50;99.90;;;;;;5056476;28;20036;-73
2022/01/17 13:19:16;;;;;;;33.13;5.55;;;9.50;99.90;;;;;;5056009;28;20102;-73
2022/01/17 13:21:43;;;;;;;35.58;5.32;;;9.50;99.90;;;;;;5017840;28;20041;-72
2022/01/17 13:24:17;;;;;;;41.92;6.53;;;9.50;99.90;;;;;;5019355;28;20037;-73
2022/01/17 13:26:47;;;;;;;33.15;5.97;;;9.50;99.90;;;;;;5036643;28;20048;-72